createdAt,value
2022-08-26T00:00:12.487Z,20.66
2022-08-26T00:01:12.461Z,20.68
2022-08-26T00:02:12.581Z,20.66
2022-08-26T00:03:12.459Z,20.66
2022-08-26T00:04:12.508Z,20.66
2022-08-26T00:05:12.420Z,20.68
2022-08-26T00:06:12.412Z,20.69
2022-08-26T00:07:12.400Z,20.74
2022-08-26T00:08:13.111Z,20.77
2022-08-26T00:09:12.381Z,20.77
2022-08-26T00:10:12.361Z,20.76
2022-08-26T00:11:12.353Z,20.74
2022-08-26T00:12:12.649Z,20.71
2022-08-26T00:13:12.362Z,20.68
2022-08-26T00:14:12.314Z,20.66
2022-08-26T00:15:12.330Z,20.65
2022-08-26T00:16:12.359Z,20.66
2022-08-26T00:17:12.286Z,20.66
2022-08-26T00:18:16.803Z,20.66
2022-08-26T00:19:13.263Z,20.66
2022-08-26T00:20:12.253Z,20.66
2022-08-26T00:21:12.265Z,20.64
2022-08-26T00:22:12.226Z,20.62
2022-08-26T00:23:12.225Z,20.59
2022-08-26T00:24:12.206Z,20.56
2022-08-26T00:25:12.206Z,20.54
2022-08-26T00:26:12.204Z,20.53
2022-08-26T00:27:12.197Z,20.53
2022-08-26T00:28:12.166Z,20.49
2022-08-26T00:29:12.156Z,20.47
2022-08-26T00:30:12.169Z,20.50
2022-08-26T00:31:12.131Z,20.49
2022-08-26T00:32:12.146Z,20.49
2022-08-26T00:33:12.109Z,20.47
2022-08-26T00:34:12.122Z,20.41
2022-08-26T00:35:12.104Z,20.34
2022-08-26T00:36:19.950Z,20.28
2022-08-26T00:37:16.144Z,20.24
2022-08-26T00:38:12.050Z,20.23
2022-08-26T00:39:12.047Z,20.18
2022-08-26T00:40:12.061Z,20.16
2022-08-26T00:41:12.018Z,20.16
2022-08-26T00:42:12.032Z,20.16
2022-08-26T00:43:11.999Z,20.16
2022-08-26T00:44:11.990Z,20.15
2022-08-26T00:45:11.971Z,20.15
2022-08-26T00:46:11.991Z,20.13
2022-08-26T00:47:11.981Z,20.12
2022-08-26T00:48:11.941Z,20.12
2022-08-26T00:49:12.513Z,20.10
2022-08-26T00:50:11.923Z,20.09
2022-08-26T00:51:11.911Z,20.12
2022-08-26T00:52:13.138Z,20.08
2022-08-26T00:53:11.886Z,20.05
2022-08-26T00:54:11.883Z,19.98
2022-08-26T00:55:11.862Z,19.94
2022-08-26T00:56:13.293Z,19.88
2022-08-26T00:57:15.938Z,19.87
2022-08-26T00:58:11.856Z,19.84
2022-08-26T00:59:11.825Z,19.84
2022-08-26T01:00:11.811Z,19.87
2022-08-26T01:01:11.825Z,19.90
2022-08-26T01:02:21.236Z,19.91
2022-08-26T01:03:12.854Z,19.93
2022-08-26T01:04:11.764Z,19.90
2022-08-26T01:05:11.755Z,19.90
2022-08-26T01:06:13.025Z,19.91
2022-08-26T01:07:11.736Z,19.90
2022-08-26T01:08:11.766Z,19.88
2022-08-26T01:09:11.706Z,19.91
2022-08-26T01:10:11.705Z,19.91
2022-08-26T01:11:11.696Z,19.91
2022-08-26T01:12:11.675Z,19.91
2022-08-26T01:13:11.668Z,19.88
2022-08-26T01:14:11.676Z,19.93
2022-08-26T01:15:11.647Z,19.94
2022-08-26T01:16:11.643Z,19.93
2022-08-26T01:17:11.628Z,19.93
2022-08-26T01:18:11.635Z,19.93
2022-08-26T01:19:11.617Z,19.93
2022-08-26T01:20:11.586Z,19.93
2022-08-26T01:21:11.580Z,19.91
2022-08-26T01:22:11.569Z,19.88
2022-08-26T01:23:11.550Z,19.86
2022-08-26T01:24:11.539Z,19.78
2022-08-26T01:25:11.556Z,19.73
2022-08-26T01:26:19.422Z,19.68
2022-08-26T01:27:12.507Z,19.65
2022-08-26T01:28:11.522Z,19.65
2022-08-26T01:29:11.494Z,19.61
2022-08-26T01:30:11.488Z,19.60
2022-08-26T01:31:11.529Z,19.61
2022-08-26T01:32:11.452Z,19.58
2022-08-26T01:33:11.442Z,19.57
2022-08-26T01:34:11.456Z,19.57
2022-08-26T01:35:11.421Z,19.65
2022-08-26T01:36:11.411Z,19.65
2022-08-26T01:37:14.682Z,19.65
2022-08-26T01:38:11.393Z,19.63
2022-08-26T01:39:11.395Z,19.55
2022-08-26T01:40:11.432Z,19.50
2022-08-26T01:41:16.134Z,19.48
2022-08-26T01:42:12.344Z,19.46
2022-08-26T01:43:11.342Z,19.46
2022-08-26T01:44:11.344Z,19.46
2022-08-26T01:45:11.315Z,19.48
2022-08-26T01:46:11.335Z,19.48
2022-08-26T01:47:11.284Z,19.46
2022-08-26T01:48:11.283Z,19.40
2022-08-26T01:49:11.267Z,19.35
2022-08-26T01:50:11.289Z,19.33
2022-08-26T01:51:11.265Z,19.31
2022-08-26T01:52:11.236Z,19.31
2022-08-26T01:53:11.491Z,19.32
2022-08-26T01:54:12.088Z,19.31
2022-08-26T01:55:11.204Z,19.31
2022-08-26T01:56:11.215Z,19.35
2022-08-26T01:57:11.176Z,19.39
2022-08-26T01:58:11.165Z,19.42
2022-08-26T01:59:11.156Z,19.47
2022-08-26T02:00:11.147Z,19.46
2022-08-26T02:01:11.543Z,19.46
2022-08-26T02:02:11.134Z,19.43
2022-08-26T02:03:11.108Z,19.43
2022-08-26T02:04:11.135Z,19.46
2022-08-26T02:05:11.086Z,19.46
2022-08-26T02:06:11.085Z,19.47
2022-08-26T02:07:11.087Z,19.51
2022-08-26T02:08:11.057Z,19.53
2022-08-26T02:09:11.050Z,19.53
2022-08-26T02:10:11.035Z,19.48
2022-08-26T02:11:11.018Z,19.47
2022-08-26T02:12:11.009Z,19.48
2022-08-26T02:13:11.017Z,19.46
2022-08-26T02:14:10.994Z,19.46
2022-08-26T02:15:11.138Z,19.42
2022-08-26T02:16:11.051Z,19.39
2022-08-26T02:17:10.950Z,19.38
2022-08-26T02:18:14.169Z,19.35
2022-08-26T02:19:11.699Z,19.32
2022-08-26T02:20:14.799Z,19.31
2022-08-26T02:21:10.914Z,19.28
2022-08-26T02:22:10.921Z,19.25
2022-08-26T02:23:10.911Z,19.24
2022-08-26T02:24:10.903Z,19.24
2022-08-26T02:25:10.863Z,19.24
2022-08-26T02:26:10.860Z,19.24
2022-08-26T02:27:10.861Z,19.21
2022-08-26T02:28:10.839Z,19.24
2022-08-26T02:29:10.828Z,19.24
2022-08-26T02:30:10.814Z,19.24
2022-08-26T02:31:10.852Z,19.24
2022-08-26T02:32:10.833Z,19.23
2022-08-26T02:33:10.772Z,19.23
2022-08-26T02:34:10.891Z,19.24
2022-08-26T02:35:10.753Z,19.28
2022-08-26T02:36:10.753Z,19.28
2022-08-26T02:37:10.761Z,19.31
2022-08-26T02:38:11.243Z,19.33
2022-08-26T02:39:10.722Z,19.39
2022-08-26T02:40:10.769Z,19.40
2022-08-26T02:41:10.687Z,19.43
2022-08-26T02:42:10.682Z,19.43
2022-08-26T02:43:10.665Z,19.43
2022-08-26T02:44:10.662Z,19.46
2022-08-26T02:45:10.673Z,19.43
2022-08-26T02:46:10.693Z,19.39
2022-08-26T02:47:10.640Z,19.36
2022-08-26T02:48:10.616Z,19.36
2022-08-26T02:49:10.599Z,19.31
2022-08-26T02:50:10.586Z,19.25
2022-08-26T02:51:10.598Z,19.24
2022-08-26T02:52:10.567Z,19.23
2022-08-26T02:53:10.555Z,19.21
2022-08-26T02:54:10.548Z,19.20
2022-08-26T02:55:10.532Z,19.18
2022-08-26T02:56:10.560Z,19.15
2022-08-26T02:57:10.508Z,19.14
2022-08-26T02:58:10.500Z,19.10
2022-08-26T02:59:10.518Z,18.99
2022-08-26T03:00:10.491Z,18.91
2022-08-26T03:01:10.575Z,18.86
2022-08-26T03:02:10.522Z,18.79
2022-08-26T03:03:10.450Z,18.74
2022-08-26T03:04:10.437Z,18.73
2022-08-26T03:05:10.440Z,18.72
2022-08-26T03:06:10.411Z,18.72
2022-08-26T03:07:10.400Z,18.74
2022-08-26T03:08:10.390Z,18.72
2022-08-26T03:09:10.379Z,18.67
2022-08-26T03:10:11.393Z,18.64
2022-08-26T03:11:10.353Z,18.64
2022-08-26T03:12:10.343Z,18.61
2022-08-26T03:13:10.336Z,18.55
2022-08-26T03:14:10.323Z,18.46
2022-08-26T03:15:16.614Z,18.40
2022-08-26T03:16:11.410Z,18.33
2022-08-26T03:17:10.296Z,18.31
2022-08-26T03:18:10.294Z,18.34
2022-08-26T03:19:10.270Z,18.37
2022-08-26T03:20:10.337Z,18.40
2022-08-26T03:21:10.243Z,18.40
2022-08-26T03:22:10.234Z,18.34
2022-08-26T03:23:10.398Z,18.37
2022-08-26T03:24:10.216Z,18.43
2022-08-26T03:25:10.207Z,18.44
2022-08-26T03:26:17.266Z,18.42
2022-08-26T03:27:10.182Z,18.39
2022-08-26T03:28:10.163Z,18.37
2022-08-26T03:29:10.154Z,18.36
2022-08-26T03:30:11.790Z,18.36
2022-08-26T03:31:10.156Z,18.37
2022-08-26T03:32:10.654Z,18.36
2022-08-26T03:33:10.172Z,18.36
2022-08-26T03:34:11.260Z,18.39
2022-08-26T03:35:10.107Z,18.37
2022-08-26T03:36:10.076Z,18.34
2022-08-26T03:37:10.065Z,18.31
2022-08-26T03:38:10.055Z,18.31
2022-08-26T03:39:10.045Z,18.31
2022-08-26T03:40:10.140Z,18.33
2022-08-26T03:41:10.023Z,18.34
2022-08-26T03:42:10.710Z,18.36
2022-08-26T03:43:10.258Z,18.36
2022-08-26T03:44:09.996Z,18.36
2022-08-26T03:45:09.977Z,18.34
2022-08-26T03:46:10.062Z,18.25
2022-08-26T03:47:09.958Z,18.19
2022-08-26T03:48:09.947Z,18.15
2022-08-26T03:49:09.939Z,18.12
2022-08-26T03:50:09.927Z,18.09
2022-08-26T03:51:09.929Z,18.07
2022-08-26T03:52:09.920Z,18.04
2022-08-26T03:53:12.706Z,18.04
2022-08-26T03:54:09.887Z,18.04
2022-08-26T03:55:09.870Z,18.04
2022-08-26T03:56:09.859Z,18.06
2022-08-26T03:57:09.870Z,18.06
2022-08-26T03:58:09.829Z,18.06
2022-08-26T03:59:09.830Z,18.07
2022-08-26T04:00:09.811Z,18.02
2022-08-26T04:01:09.812Z,18.00
2022-08-26T04:02:11.689Z,18.00
2022-08-26T04:03:10.402Z,18.04
2022-08-26T04:04:09.769Z,18.04
2022-08-26T04:05:10.760Z,18.04
2022-08-26T04:06:09.782Z,18.07
2022-08-26T04:07:09.744Z,18.10
2022-08-26T04:08:10.044Z,18.15
2022-08-26T04:09:09.713Z,18.15
2022-08-26T04:10:09.693Z,18.15
2022-08-26T04:11:09.692Z,18.13
2022-08-26T04:12:09.702Z,18.17
2022-08-26T04:13:09.780Z,18.15
2022-08-26T04:14:09.653Z,18.13
2022-08-26T04:15:09.643Z,18.13
2022-08-26T04:16:10.347Z,18.13
2022-08-26T04:17:09.652Z,18.18
2022-08-26T04:18:09.614Z,18.17
2022-08-26T04:19:09.604Z,18.18
2022-08-26T04:20:09.587Z,18.19
2022-08-26T04:21:09.574Z,18.22
2022-08-26T04:22:09.595Z,18.24
2022-08-26T04:23:09.605Z,18.24
2022-08-26T04:24:12.088Z,18.31
2022-08-26T04:25:09.536Z,18.31
2022-08-26T04:26:09.515Z,18.33
2022-08-26T04:27:09.514Z,18.34
2022-08-26T04:28:09.526Z,18.36
2022-08-26T04:29:09.514Z,18.37
2022-08-26T04:30:09.623Z,18.37
2022-08-26T04:31:09.511Z,18.34
2022-08-26T04:32:09.456Z,18.36
2022-08-26T04:33:13.046Z,18.34
2022-08-26T04:34:09.453Z,18.39
2022-08-26T04:35:09.427Z,18.40
2022-08-26T04:36:09.411Z,18.39
2022-08-26T04:37:09.398Z,18.36
2022-08-26T04:38:09.389Z,18.29
2022-08-26T04:39:09.397Z,18.28
2022-08-26T04:40:09.410Z,18.22
2022-08-26T04:41:15.693Z,18.24
2022-08-26T04:42:10.348Z,18.25
2022-08-26T04:43:09.404Z,18.28
2022-08-26T04:44:09.328Z,18.31
2022-08-26T04:45:10.282Z,18.33
2022-08-26T04:46:09.362Z,18.34
2022-08-26T04:47:09.288Z,18.34
2022-08-26T04:48:11.070Z,18.37
2022-08-26T04:49:09.267Z,18.40
2022-08-26T04:50:09.290Z,18.42
2022-08-26T04:51:09.249Z,18.42
2022-08-26T04:52:09.231Z,18.42
2022-08-26T04:53:09.385Z,18.40
2022-08-26T04:54:09.219Z,18.42
2022-08-26T04:55:09.202Z,18.40
2022-08-26T04:56:09.332Z,18.37
2022-08-26T04:57:09.181Z,18.34
2022-08-26T04:58:10.339Z,18.33
2022-08-26T04:59:17.178Z,18.33
2022-08-26T05:00:10.172Z,18.36
2022-08-26T05:01:09.132Z,18.37
2022-08-26T05:02:09.167Z,18.37
2022-08-26T05:03:10.630Z,18.36
2022-08-26T05:04:09.152Z,18.37
2022-08-26T05:05:09.082Z,18.37
2022-08-26T05:06:09.453Z,18.39
2022-08-26T05:07:09.073Z,18.37
2022-08-26T05:08:09.054Z,18.40
2022-08-26T05:09:09.043Z,18.44
2022-08-26T05:10:09.055Z,18.49
2022-08-26T05:11:09.442Z,18.49
2022-08-26T05:12:09.128Z,18.49
2022-08-26T05:13:11.218Z,18.55
2022-08-26T05:14:08.992Z,18.57
2022-08-26T05:15:08.975Z,18.58
2022-08-26T05:16:09.154Z,18.58
2022-08-26T05:17:09.259Z,18.62
2022-08-26T05:18:09.950Z,18.62
2022-08-26T05:19:08.928Z,18.64
2022-08-26T05:20:08.924Z,18.64
2022-08-26T05:21:08.907Z,18.61
2022-08-26T05:22:08.906Z,18.62
2022-08-26T05:23:09.096Z,18.68
2022-08-26T05:24:08.886Z,18.68
2022-08-26T05:25:08.866Z,18.73
2022-08-26T05:26:08.859Z,18.76
2022-08-26T05:27:11.831Z,18.80
2022-08-26T05:28:08.837Z,18.86
2022-08-26T05:29:08.817Z,18.87
2022-08-26T05:30:08.827Z,18.92
2022-08-26T05:31:08.832Z,18.98
2022-08-26T05:32:08.808Z,19.05
2022-08-26T05:33:09.025Z,19.06
2022-08-26T05:34:08.768Z,19.08
2022-08-26T05:35:09.079Z,19.18
2022-08-26T05:36:08.740Z,19.20
2022-08-26T05:37:08.750Z,19.21
2022-08-26T05:38:12.449Z,19.20
2022-08-26T05:39:10.400Z,19.28
2022-08-26T05:40:08.725Z,19.29
2022-08-26T05:41:08.690Z,19.29
2022-08-26T05:42:08.701Z,19.32
2022-08-26T05:43:08.869Z,19.36
2022-08-26T05:44:08.661Z,19.40
2022-08-26T05:45:08.642Z,19.39
2022-08-26T05:46:08.696Z,19.39
2022-08-26T05:47:08.643Z,19.39
2022-08-26T05:48:08.653Z,19.42
2022-08-26T05:49:12.704Z,19.40
2022-08-26T05:50:08.596Z,19.43
2022-08-26T05:51:08.593Z,19.43
2022-08-26T05:52:08.650Z,19.48
2022-08-26T05:53:08.662Z,19.55
2022-08-26T05:54:08.570Z,19.57
2022-08-26T05:55:08.533Z,19.72
2022-08-26T05:56:08.523Z,19.68
2022-08-26T05:57:08.512Z,19.69
2022-08-26T05:58:08.503Z,19.60
2022-08-26T05:59:14.285Z,19.61
2022-08-26T06:00:09.475Z,19.68
2022-08-26T06:01:08.474Z,19.73
2022-08-26T06:02:08.475Z,19.69
2022-08-26T06:03:08.628Z,19.70
2022-08-26T06:04:08.454Z,19.75
2022-08-26T06:05:08.424Z,19.69
2022-08-26T06:06:08.414Z,19.68
2022-08-26T06:07:10.019Z,19.63
2022-08-26T06:08:08.414Z,19.65
2022-08-26T06:09:09.336Z,19.65
2022-08-26T06:10:30.940Z,19.69
2022-08-26T06:11:18.274Z,19.54
2022-08-26T06:12:09.356Z,19.63
2022-08-26T06:13:11.800Z,19.66
2022-08-26T06:14:08.357Z,19.63
2022-08-26T06:15:08.338Z,19.55
2022-08-26T06:16:08.342Z,19.69
2022-08-26T06:17:08.287Z,19.70
2022-08-26T06:18:08.427Z,19.69
2022-08-26T06:19:10.415Z,19.70
2022-08-26T06:20:08.280Z,19.60
2022-08-26T06:21:08.239Z,19.57
2022-08-26T06:22:08.239Z,19.47
2022-08-26T06:23:08.307Z,19.50
2022-08-26T06:24:08.218Z,19.55
2022-08-26T06:25:08.227Z,19.68
2022-08-26T06:26:08.196Z,19.72
2022-08-26T06:27:08.179Z,19.80
2022-08-26T06:28:08.173Z,19.93
2022-08-26T06:29:08.176Z,19.91
2022-08-26T06:30:08.172Z,19.91
2022-08-26T06:31:08.209Z,19.87
2022-08-26T06:32:08.820Z,19.80
2022-08-26T06:33:08.213Z,19.93
2022-08-26T06:34:10.750Z,20.08
2022-08-26T06:35:11.945Z,20.13
2022-08-26T06:36:08.101Z,20.21
2022-08-26T06:37:08.062Z,20.23
2022-08-26T06:38:08.054Z,20.15
2022-08-26T06:39:08.042Z,20.18
2022-08-26T06:40:08.086Z,20.21
2022-08-26T06:41:08.043Z,20.18
2022-08-26T06:42:08.013Z,20.23
2022-08-26T06:43:08.070Z,20.30
2022-08-26T06:44:07.992Z,20.27
2022-08-26T06:45:07.998Z,20.41
2022-08-26T06:46:08.107Z,20.38
2022-08-26T06:47:07.953Z,20.41
2022-08-26T06:48:07.948Z,20.46
2022-08-26T06:49:08.005Z,20.50
2022-08-26T06:50:08.082Z,20.59
2022-08-26T06:51:08.093Z,20.56
2022-08-26T06:52:07.903Z,20.56
2022-08-26T06:53:08.057Z,20.54
2022-08-26T06:54:07.883Z,20.38
2022-08-26T06:55:07.889Z,20.38
2022-08-26T06:56:07.857Z,20.42
2022-08-26T06:57:07.846Z,20.54
2022-08-26T06:58:07.837Z,20.68
2022-08-26T06:59:07.880Z,20.59
2022-08-26T07:00:07.836Z,20.54
2022-08-26T07:01:11.712Z,20.47
2022-08-26T07:02:08.139Z,20.49
2022-08-26T07:03:08.298Z,20.43
2022-08-26T07:04:10.496Z,20.49
2022-08-26T07:05:07.788Z,20.58
2022-08-26T07:06:07.750Z,20.66
2022-08-26T07:07:07.748Z,20.79
2022-08-26T07:08:07.727Z,20.77
2022-08-26T07:09:10.024Z,20.80
2022-08-26T07:10:07.700Z,20.76
2022-08-26T07:11:07.736Z,20.68
2022-08-26T07:12:07.680Z,20.71
2022-08-26T07:13:08.049Z,20.84
2022-08-26T07:14:07.661Z,20.87
2022-08-26T07:15:07.702Z,20.81
2022-08-26T07:16:07.692Z,20.66
2022-08-26T07:17:11.074Z,20.71
2022-08-26T07:18:08.721Z,20.76
2022-08-26T07:19:10.789Z,20.74
2022-08-26T07:20:07.611Z,20.72
2022-08-26T07:21:07.651Z,20.74
2022-08-26T07:22:08.622Z,20.90
2022-08-26T07:23:07.714Z,20.89
2022-08-26T07:24:07.553Z,21.01
2022-08-26T07:25:07.531Z,21.01
2022-08-26T07:26:07.531Z,20.91
2022-08-26T07:27:07.518Z,20.81
2022-08-26T07:28:07.540Z,20.93
2022-08-26T07:29:07.494Z,20.96
2022-08-26T07:30:07.493Z,21.09
2022-08-26T07:31:09.551Z,21.23
2022-08-26T07:32:07.466Z,21.24
2022-08-26T07:33:07.561Z,21.21
2022-08-26T07:34:07.435Z,21.38
2022-08-26T07:35:07.421Z,21.51
2022-08-26T07:36:07.413Z,21.44
2022-08-26T07:37:08.854Z,21.57
2022-08-26T07:38:07.424Z,21.63
2022-08-26T07:39:07.375Z,21.71
2022-08-26T07:40:07.409Z,21.82
2022-08-26T07:41:07.365Z,21.94
2022-08-26T07:42:08.267Z,21.81
2022-08-26T07:43:07.508Z,21.78
2022-08-26T07:44:07.335Z,21.82
2022-08-26T07:45:07.316Z,21.72
2022-08-26T07:46:07.307Z,21.74
2022-08-26T07:47:10.264Z,21.75
2022-08-26T07:48:08.298Z,21.71
2022-08-26T07:49:07.336Z,21.67
2022-08-26T07:50:07.263Z,21.76
2022-08-26T07:51:07.247Z,21.91
2022-08-26T07:52:07.239Z,21.91
2022-08-26T07:53:07.414Z,21.81
2022-08-26T07:54:07.249Z,21.66
2022-08-26T07:55:07.201Z,21.54
2022-08-26T07:56:07.189Z,21.46
2022-08-26T07:57:09.312Z,21.45
2022-08-26T07:58:07.190Z,21.48
2022-08-26T07:59:13.675Z,21.51
2022-08-26T08:00:08.147Z,21.51
2022-08-26T08:01:07.172Z,21.64
2022-08-26T08:02:07.204Z,21.74
2022-08-26T08:03:07.457Z,21.81
2022-08-26T08:04:07.172Z,21.95
2022-08-26T08:05:07.124Z,22.10
2022-08-26T08:06:07.084Z,22.20
2022-08-26T08:07:07.553Z,22.28
2022-08-26T08:08:27.871Z,22.35
2022-08-26T08:09:08.042Z,22.39
2022-08-26T08:10:11.380Z,22.35
2022-08-26T08:11:07.022Z,22.37
2022-08-26T08:12:07.020Z,22.38
2022-08-26T08:13:07.089Z,22.34
2022-08-26T08:14:08.476Z,22.43
2022-08-26T08:15:07.197Z,22.54
2022-08-26T08:16:06.992Z,22.67
2022-08-26T08:17:08.087Z,22.74
2022-08-26T08:18:07.036Z,22.80
2022-08-26T08:19:07.942Z,22.80
2022-08-26T08:20:06.925Z,22.68
2022-08-26T08:21:19.963Z,22.53
2022-08-26T08:22:17.416Z,22.43
2022-08-26T08:23:07.886Z,22.37
2022-08-26T08:24:06.885Z,22.34
2022-08-26T08:25:08.257Z,22.41
2022-08-26T08:26:06.886Z,22.56
2022-08-26T08:27:06.867Z,22.60
2022-08-26T08:28:06.942Z,22.54
2022-08-26T08:29:06.828Z,22.52
2022-08-26T08:30:06.889Z,22.60
2022-08-26T08:31:06.872Z,22.59
2022-08-26T08:32:06.854Z,22.56
2022-08-26T08:33:06.778Z,22.49
2022-08-26T08:34:06.768Z,22.52
2022-08-26T08:35:10.781Z,22.47
2022-08-26T08:36:07.752Z,22.44
2022-08-26T08:37:08.754Z,22.39
2022-08-26T08:38:06.840Z,22.57
2022-08-26T08:39:06.710Z,22.47
2022-08-26T08:40:06.755Z,22.50
2022-08-26T08:41:06.691Z,22.54
2022-08-26T08:42:06.732Z,22.59
2022-08-26T08:43:06.837Z,22.62
2022-08-26T08:44:06.652Z,22.52
2022-08-26T08:45:06.641Z,22.43
2022-08-26T08:46:06.661Z,22.38
2022-08-26T08:47:06.624Z,22.32
2022-08-26T08:48:06.779Z,22.38
2022-08-26T08:49:06.601Z,22.39
2022-08-26T08:50:06.594Z,22.38
2022-08-26T08:51:06.582Z,22.41
2022-08-26T08:52:06.593Z,22.44
2022-08-26T08:53:09.057Z,22.62
2022-08-26T08:54:06.544Z,22.72
2022-08-26T08:55:10.960Z,22.87
2022-08-26T08:56:07.565Z,22.96
2022-08-26T08:57:06.513Z,23.09
2022-08-26T08:58:06.618Z,23.12
2022-08-26T08:59:06.497Z,23.02
2022-08-26T09:00:06.475Z,22.94
2022-08-26T09:01:06.661Z,22.94
2022-08-26T09:02:06.634Z,22.90
2022-08-26T09:03:06.478Z,22.89
2022-08-26T09:04:06.447Z,23.01
2022-08-26T09:05:06.428Z,23.22
2022-08-26T09:06:06.417Z,23.43
2022-08-26T09:07:06.398Z,23.60
2022-08-26T09:08:06.627Z,23.67
2022-08-26T09:09:06.407Z,23.82
2022-08-26T09:10:06.379Z,23.83
2022-08-26T09:11:06.842Z,23.77
2022-08-26T09:12:06.339Z,23.85
2022-08-26T09:13:06.332Z,23.94
2022-08-26T09:14:06.340Z,23.76
2022-08-26T09:15:06.337Z,23.82
2022-08-26T09:16:06.299Z,23.89
2022-08-26T09:17:06.360Z,23.89
2022-08-26T09:18:06.306Z,23.71
2022-08-26T09:19:06.272Z,23.64
2022-08-26T09:20:06.283Z,23.72
2022-08-26T09:21:06.252Z,23.83
2022-08-26T09:22:09.393Z,23.83
2022-08-26T09:23:06.310Z,23.87
2022-08-26T09:24:06.219Z,23.92
2022-08-26T09:25:06.235Z,23.83
2022-08-26T09:26:06.191Z,23.80
2022-08-26T09:27:06.213Z,23.71
2022-08-26T09:28:06.252Z,23.72
2022-08-26T09:29:06.166Z,23.55
2022-08-26T09:30:06.144Z,23.31
2022-08-26T09:31:10.645Z,23.09
2022-08-26T09:32:07.115Z,22.94
2022-08-26T09:33:06.714Z,22.89
2022-08-26T09:34:06.106Z,22.97
2022-08-26T09:35:06.251Z,23.02
2022-08-26T09:36:06.074Z,23.05
2022-08-26T09:37:06.094Z,23.12
2022-08-26T09:38:07.019Z,23.17
2022-08-26T09:39:06.047Z,23.17
2022-08-26T09:40:06.083Z,23.11
2022-08-26T09:41:06.034Z,23.01
2022-08-26T09:42:06.009Z,22.94
2022-08-26T09:43:06.026Z,22.99
2022-08-26T09:44:05.996Z,22.97
2022-08-26T09:45:05.987Z,22.84
2022-08-26T09:46:05.987Z,22.89
2022-08-26T09:47:05.961Z,23.09
2022-08-26T09:48:06.001Z,23.32
2022-08-26T09:49:05.971Z,23.39
2022-08-26T09:50:09.611Z,23.42
2022-08-26T09:51:05.969Z,23.50
2022-08-26T09:52:05.920Z,23.42
2022-08-26T09:53:09.797Z,23.43
2022-08-26T09:54:08.193Z,23.32
2022-08-26T09:55:05.871Z,23.24
2022-08-26T09:56:05.850Z,23.26
2022-08-26T09:57:05.874Z,23.26
2022-08-26T09:58:08.657Z,23.43
2022-08-26T09:59:06.512Z,23.64
2022-08-26T10:00:06.811Z,23.89
2022-08-26T10:01:05.885Z,24.00
2022-08-26T10:02:05.866Z,23.97
2022-08-26T10:03:06.803Z,23.89
2022-08-26T10:04:05.790Z,24.00
2022-08-26T10:05:09.534Z,24.12
2022-08-26T10:06:05.784Z,24.23
2022-08-26T10:07:05.752Z,24.07
2022-08-26T10:08:05.727Z,24.05
2022-08-26T10:09:08.824Z,23.97
2022-08-26T10:10:05.704Z,24.10
2022-08-26T10:11:05.693Z,24.23
2022-08-26T10:12:05.677Z,24.39
2022-08-26T10:13:05.738Z,24.52
2022-08-26T10:14:05.658Z,24.37
2022-08-26T10:15:05.659Z,24.31
2022-08-26T10:16:05.752Z,24.05
2022-08-26T10:17:05.692Z,23.92
2022-08-26T10:18:05.729Z,23.79
2022-08-26T10:19:05.917Z,23.72
2022-08-26T10:20:05.677Z,23.87
2022-08-26T10:21:07.291Z,23.80
2022-08-26T10:22:05.641Z,23.67
2022-08-26T10:23:05.590Z,23.68
2022-08-26T10:24:05.567Z,23.79
2022-08-26T10:25:05.555Z,23.75
2022-08-26T10:26:05.528Z,23.79
2022-08-26T10:27:05.518Z,23.79
2022-08-26T10:28:05.586Z,23.97
2022-08-26T10:29:05.520Z,24.19
2022-08-26T10:30:05.483Z,24.37
2022-08-26T10:31:05.491Z,24.34
2022-08-26T10:32:05.478Z,24.52
2022-08-26T10:33:05.550Z,24.44
2022-08-26T10:34:05.470Z,24.50
2022-08-26T10:35:05.563Z,24.54
2022-08-26T10:36:05.450Z,24.59
2022-08-26T10:37:15.513Z,24.54
2022-08-26T10:38:06.573Z,24.49
2022-08-26T10:39:05.412Z,24.49
2022-08-26T10:40:05.399Z,24.47
2022-08-26T10:41:10.360Z,24.37
2022-08-26T10:42:06.344Z,24.47
2022-08-26T10:43:11.038Z,24.61
2022-08-26T10:44:06.354Z,24.64
2022-08-26T10:45:05.325Z,24.68
2022-08-26T10:46:05.526Z,24.73
2022-08-26T10:47:05.473Z,24.88
2022-08-26T10:48:05.471Z,25.06
2022-08-26T10:49:06.610Z,25.27
2022-08-26T10:50:05.415Z,25.47
2022-08-26T10:51:05.682Z,25.56
2022-08-26T10:52:05.342Z,25.53
2022-08-26T10:53:06.310Z,25.12
2022-08-26T10:54:05.328Z,24.69
2022-08-26T10:55:05.399Z,24.64
2022-08-26T10:56:05.383Z,24.63
2022-08-26T10:57:05.312Z,24.57
2022-08-26T10:58:08.106Z,24.50
2022-08-26T10:59:05.190Z,24.61
2022-08-26T11:00:06.251Z,24.60
2022-08-26T11:01:10.388Z,24.60
2022-08-26T11:02:06.279Z,24.75
2022-08-26T11:03:05.262Z,24.88
2022-08-26T11:04:05.251Z,24.59
2022-08-26T11:05:05.140Z,24.52
2022-08-26T11:06:05.113Z,24.57
2022-08-26T11:07:05.155Z,24.54
2022-08-26T11:08:05.099Z,24.77
2022-08-26T11:09:05.074Z,24.88
2022-08-26T11:10:05.053Z,24.97
2022-08-26T11:11:05.093Z,25.15
2022-08-26T11:12:10.046Z,25.24
2022-08-26T11:13:06.180Z,25.31
2022-08-26T11:14:05.044Z,25.17
2022-08-26T11:15:05.405Z,25.12
2022-08-26T11:16:05.375Z,24.82
2022-08-26T11:17:05.090Z,24.85
2022-08-26T11:18:04.968Z,24.88
2022-08-26T11:19:04.966Z,25.05
2022-08-26T11:20:09.248Z,25.00
2022-08-26T11:21:05.937Z,24.85
2022-08-26T11:22:04.975Z,24.97
2022-08-26T11:23:04.948Z,24.98
2022-08-26T11:24:04.907Z,24.97
2022-08-26T11:25:04.938Z,24.90
2022-08-26T11:26:04.888Z,25.00
2022-08-26T11:27:04.878Z,25.16
2022-08-26T11:28:04.893Z,25.43
2022-08-26T11:29:04.877Z,25.72
2022-08-26T11:30:05.840Z,26.05
2022-08-26T11:31:04.843Z,26.37
2022-08-26T11:32:04.888Z,26.47
2022-08-26T11:33:04.837Z,26.76
2022-08-26T11:34:04.840Z,27.04
2022-08-26T11:35:04.789Z,26.81
2022-08-26T11:36:12.101Z,27.06
2022-08-26T11:37:05.768Z,27.32
2022-08-26T11:38:04.754Z,27.61
2022-08-26T11:39:04.743Z,27.88
2022-08-26T11:40:04.761Z,28.09
2022-08-26T11:41:05.095Z,28.26
2022-08-26T11:42:04.711Z,28.43
2022-08-26T11:43:04.701Z,28.87
2022-08-26T11:44:04.686Z,28.69
2022-08-26T11:45:05.778Z,28.60
2022-08-26T11:46:04.828Z,28.58
2022-08-26T11:47:04.653Z,27.91
2022-08-26T11:48:04.635Z,27.54
2022-08-26T11:49:04.637Z,27.42
2022-08-26T11:50:04.638Z,26.77
2022-08-26T11:51:04.617Z,26.58
2022-08-26T11:52:04.607Z,26.37
2022-08-26T11:53:04.590Z,25.98
2022-08-26T11:54:04.578Z,25.89
2022-08-26T11:55:04.595Z,25.99
2022-08-26T11:56:04.554Z,25.87
2022-08-26T11:57:07.940Z,25.94
2022-08-26T11:58:05.825Z,25.84
2022-08-26T11:59:04.521Z,25.90
2022-08-26T12:00:05.747Z,25.94
2022-08-26T12:01:04.499Z,26.04
2022-08-26T12:02:05.490Z,26.27
2022-08-26T12:03:04.617Z,26.54
2022-08-26T12:04:04.562Z,26.55
2022-08-26T12:05:04.458Z,26.69
2022-08-26T12:06:04.461Z,26.77
2022-08-26T12:07:04.436Z,26.35
2022-08-26T12:08:04.420Z,25.79
2022-08-26T12:09:04.483Z,25.61
2022-08-26T12:10:04.402Z,25.59
2022-08-26T12:11:04.402Z,25.77
2022-08-26T12:12:04.399Z,26.15
2022-08-26T12:13:04.370Z,25.98
2022-08-26T12:14:04.352Z,26.22
2022-08-26T12:15:04.342Z,26.61
2022-08-26T12:16:04.385Z,27.01
2022-08-26T12:17:04.332Z,27.02
2022-08-26T12:18:05.434Z,26.87
2022-08-26T12:19:04.295Z,26.61
2022-08-26T12:20:04.284Z,26.86
2022-08-26T12:21:04.303Z,27.24
2022-08-26T12:22:04.264Z,27.82
2022-08-26T12:23:04.274Z,27.43
2022-08-26T12:24:04.245Z,27.13
2022-08-26T12:25:04.236Z,27.32
2022-08-26T12:26:04.222Z,27.70
2022-08-26T12:27:04.237Z,28.80
2022-08-26T12:28:04.238Z,29.29
2022-08-26T12:29:19.766Z,29.87
2022-08-26T12:30:06.828Z,30.24
2022-08-26T12:31:04.176Z,30.36
2022-08-26T12:32:04.247Z,30.47
2022-08-26T12:33:13.314Z,30.81
2022-08-26T12:34:05.159Z,30.93
2022-08-26T12:36:04.194Z,30.84
2022-08-26T12:37:04.245Z,30.75
2022-08-26T12:38:04.105Z,30.93
2022-08-26T12:39:11.887Z,31.49
2022-08-26T12:40:04.125Z,31.46
2022-08-26T12:41:04.069Z,30.71
2022-08-26T12:42:04.054Z,30.03
2022-08-26T12:43:04.080Z,29.20
2022-08-26T12:44:04.052Z,29.70
2022-08-26T12:45:04.029Z,28.47
2022-08-26T12:46:04.064Z,28.19
2022-08-26T12:47:04.005Z,27.85
2022-08-26T12:48:03.990Z,27.46
2022-08-26T12:49:03.973Z,27.47
2022-08-26T12:50:03.985Z,27.62
2022-08-26T12:51:03.952Z,28.38
2022-08-26T12:52:03.943Z,28.43
2022-08-26T12:53:03.924Z,28.84